Terminal Aerodrome Forecast
Issued by NWS Charleston, WV

Current Version | Previous Version | Graphics & Text | Print | Product List | Glossary On
Versions: 1 2 3 4 5 6 7 8 9 10 11 12 13 14 15 16 17 18 19 20 21 22 23 24 25
000
FTUS41 KRLX 202340
TAFCRW
TAF
KCRW 202340Z 2100/2124 VRB03KT P6SM -SHRA OVC045
     FM210200 VRB03KT 3SM -SHRA VCTS OVC045CB
     FM210600 VRB02KT 4SM -SHRA OVC030
     FM211300 VRB03KT 4SM BR OVC009
     FM211500 34004KT P6SM OVC020
     FM212200 33005KT P6SM BKN040=

USA.gov is the U.S. government's official web portal to all federal, state and local government web resources and services.